Pike Station, Illinois
Current Conditions -  °F | °C
As of 1:15 AM on Saturday 25 Oct 2014 (Local Time) from KPPQ Reporting Station
Scattered Clouds Scattered Clouds  
Wind Chill: 65°   Ceiling: Unl
Heat Index: 65°   Visibility: 10mi
Dew Point: 59°   Wind: 7mph
Humidity: 82%   Direction: 240°WSW
Pressure: 29.97"   Gusts: NA
Location:  39.5365°N, 91.0118°W
Report Text: KPPQ 250615Z AUTO 24006KT 10SM SCT039 18/15 A2997 RMK AO2 T01810150
Loading
Personal Weather Stations






























Interactive Weather Map
Tropical Storm Tracking
New forecast layout! Learn more

10-Day Weather Forecast

Advertisements
Track Severe Weather on mobile